sensor_id;sensor_type;location;lat;lon;timestamp;P1;durP1;ratioP1;P2;durP2;ratioP2
78989;SDS011;68390;52.130;21.218;2023-08-17T00:01:33;16.35;;;10.90;;
78989;SDS011;68390;52.130;21.218;2023-08-17T00:03:59;12.18;;;9.07;;
78989;SDS011;68390;52.130;21.218;2023-08-17T00:06:24;16.20;;;10.95;;
78989;SDS011;68390;52.130;21.218;2023-08-17T00:08:51;14.77;;;11.25;;
78989;SDS011;68390;52.130;21.218;2023-08-17T00:11:16;15.38;;;11.23;;
78989;SDS011;68390;52.130;21.218;2023-08-17T00:13:41;14.38;;;10.40;;
78989;SDS011;68390;52.130;21.218;2023-08-17T00:16:07;13.13;;;10.50;;
78989;SDS011;68390;52.130;21.218;2023-08-17T00:18:32;11.23;;;9.02;;
78989;SDS011;68390;52.130;21.218;2023-08-17T00:20:57;16.42;;;11.32;;
78989;SDS011;68390;52.130;21.218;2023-08-17T00:23:23;12.15;;;10.18;;
78989;SDS011;68390;52.130;21.218;2023-08-17T00:25:48;11.98;;;10.75;;
78989;SDS011;68390;52.130;21.218;2023-08-17T00:28:14;15.57;;;10.68;;
78989;SDS011;68390;52.130;21.218;2023-08-17T00:30:39;14.13;;;10.75;;
78989;SDS011;68390;52.130;21.218;2023-08-17T00:33:05;12.05;;;10.50;;
78989;SDS011;68390;52.130;21.218;2023-08-17T00:35:31;12.98;;;11.30;;
78989;SDS011;68390;52.130;21.218;2023-08-17T00:37:57;13.85;;;11.05;;
78989;SDS011;68390;52.130;21.218;2023-08-17T00:40:23;10.95;;;9.70;;
78989;SDS011;68390;52.130;21.218;2023-08-17T00:42:48;16.52;;;11.00;;
78989;SDS011;68390;52.130;21.218;2023-08-17T00:45:14;14.73;;;11.27;;
78989;SDS011;68390;52.130;21.218;2023-08-17T00:47:40;17.42;;;10.93;;
78989;SDS011;68390;52.130;21.218;2023-08-17T00:53:29;11.70;;;10.30;;
78989;SDS011;68390;52.130;21.218;2023-08-17T00:55:56;14.75;;;10.55;;
78989;SDS011;68390;52.130;21.218;2023-08-17T00:58:22;11.60;;;9.27;;
78989;SDS011;68390;52.130;21.218;2023-08-17T01:00:47;13.23;;;11.35;;
78989;SDS011;68390;52.130;21.218;2023-08-17T01:03:13;12.90;;;10.80;;
78989;SDS011;68390;52.130;21.218;2023-08-17T01:05:39;12.73;;;11.35;;
78989;SDS011;68390;52.130;21.218;2023-08-17T01:08:05;13.20;;;11.05;;
78989;SDS011;68390;52.130;21.218;2023-08-17T01:13:32;12.10;;;10.20;;
78989;SDS011;68390;52.130;21.218;2023-08-17T01:16:04;13.38;;;10.00;;
78989;SDS011;68390;52.130;21.218;2023-08-17T01:20:59;12.40;;;10.18;;
78989;SDS011;68390;52.130;21.218;2023-08-17T01:23:27;13.07;;;11.50;;
78989;SDS011;68390;52.130;21.218;2023-08-17T01:25:52;12.57;;;10.95;;
78989;SDS011;68390;52.130;21.218;2023-08-17T01:28:18;15.60;;;11.07;;
78989;SDS011;68390;52.130;21.218;2023-08-17T01:30:47;14.95;;;12.25;;
78989;SDS011;68390;52.130;21.218;2023-08-17T01:33:20;13.60;;;11.60;;
78989;SDS011;68390;52.130;21.218;2023-08-17T01:36:01;15.07;;;11.82;;
78989;SDS011;68390;52.130;21.218;2023-08-17T01:38:33;12.57;;;11.13;;
78989;SDS011;68390;52.130;21.218;2023-08-17T01:41:00;16.80;;;12.10;;
78989;SDS011;68390;52.130;21.218;2023-08-17T01:43:29;13.93;;;12.35;;
78989;SDS011;68390;52.130;21.218;2023-08-17T01:45:55;13.88;;;11.65;;
78989;SDS011;68390;52.130;21.218;2023-08-17T01:48:20;15.57;;;10.90;;
78989;SDS011;68390;52.130;21.218;2023-08-17T01:50:45;16.83;;;13.82;;
78989;SDS011;68390;52.130;21.218;2023-08-17T01:53:11;13.45;;;11.93;;
78989;SDS011;68390;52.130;21.218;2023-08-17T01:55:38;14.15;;;12.57;;
78989;SDS011;68390;52.130;21.218;2023-08-17T01:58:03;15.32;;;12.98;;
78989;SDS011;68390;52.130;21.218;2023-08-17T02:00:28;15.02;;;11.45;;
78989;SDS011;68390;52.130;21.218;2023-08-17T02:02:54;15.38;;;12.20;;
78989;SDS011;68390;52.130;21.218;2023-08-17T02:05:19;17.95;;;13.70;;
78989;SDS011;68390;52.130;21.218;2023-08-17T02:07:45;15.48;;;12.82;;
78989;SDS011;68390;52.130;21.218;2023-08-17T02:10:10;17.88;;;13.32;;
78989;SDS011;68390;52.130;21.218;2023-08-17T02:12:35;15.88;;;12.55;;
78989;SDS011;68390;52.130;21.218;2023-08-17T02:15:01;16.20;;;13.32;;
78989;SDS011;68390;52.130;21.218;2023-08-17T02:17:26;14.63;;;12.40;;
78989;SDS011;68390;52.130;21.218;2023-08-17T02:19:52;18.13;;;13.07;;
78989;SDS011;68390;52.130;21.218;2023-08-17T02:22:17;13.70;;;11.88;;
78989;SDS011;68390;52.130;21.218;2023-08-17T02:24:42;17.50;;;14.13;;
78989;SDS011;68390;52.130;21.218;2023-08-17T02:27:09;14.35;;;12.18;;
78989;SDS011;68390;52.130;21.218;2023-08-17T02:29:34;14.98;;;11.80;;
78989;SDS011;68390;52.130;21.218;2023-08-17T02:32:00;14.48;;;12.50;;
78989;SDS011;68390;52.130;21.218;2023-08-17T02:34:25;13.90;;;12.13;;
78989;SDS011;68390;52.130;21.218;2023-08-17T02:36:50;14.93;;;13.10;;
78989;SDS011;68390;52.130;21.218;2023-08-17T02:39:16;17.85;;;14.50;;
78989;SDS011;68390;52.130;21.218;2023-08-17T02:41:41;16.80;;;13.50;;
78989;SDS011;68390;52.130;21.218;2023-08-17T02:44:07;15.73;;;12.50;;
78989;SDS011;68390;52.130;21.218;2023-08-17T02:46:32;15.85;;;12.48;;
78989;SDS011;68390;52.130;21.218;2023-08-17T02:48:57;15.77;;;12.38;;
78989;SDS011;68390;52.130;21.218;2023-08-17T02:51:23;13.88;;;11.32;;
78989;SDS011;68390;52.130;21.218;2023-08-17T02:53:48;15.10;;;11.65;;
78989;SDS011;68390;52.130;21.218;2023-08-17T02:56:14;16.25;;;12.73;;
78989;SDS011;68390;52.130;21.218;2023-08-17T02:58:39;12.52;;;11.07;;
78989;SDS011;68390;52.130;21.218;2023-08-17T03:01:08;17.00;;;12.07;;
78989;SDS011;68390;52.130;21.218;2023-08-17T03:03:33;14.15;;;11.45;;
78989;SDS011;68390;52.130;21.218;2023-08-17T03:05:59;14.35;;;11.05;;
78989;SDS011;68390;52.130;21.218;2023-08-17T03:08:25;14.80;;;11.77;;
78989;SDS011;68390;52.130;21.218;2023-08-17T03:10:50;14.35;;;12.55;;
78989;SDS011;68390;52.130;21.218;2023-08-17T03:13:15;14.30;;;12.50;;
78989;SDS011;68390;52.130;21.218;2023-08-17T03:15:41;15.75;;;12.23;;
78989;SDS011;68390;52.130;21.218;2023-08-17T03:18:06;17.00;;;11.98;;
78989;SDS011;68390;52.130;21.218;2023-08-17T03:20:32;16.92;;;11.60;;
78989;SDS011;68390;52.130;21.218;2023-08-17T03:22:57;13.10;;;11.77;;
78989;SDS011;68390;52.130;21.218;2023-08-17T03:25:23;17.08;;;11.93;;
78989;SDS011;68390;52.130;21.218;2023-08-17T03:27:48;21.67;;;12.60;;
78989;SDS011;68390;52.130;21.218;2023-08-17T03:30:14;15.38;;;11.23;;
78989;SDS011;68390;52.130;21.218;2023-08-17T03:32:39;16.00;;;11.73;;
78989;SDS011;68390;52.130;21.218;2023-08-17T03:35:06;13.88;;;11.60;;
78989;SDS011;68390;52.130;21.218;2023-08-17T03:40:19;16.02;;;10.60;;
78989;SDS011;68390;52.130;21.218;2023-08-17T03:42:47;12.45;;;10.38;;
78989;SDS011;68390;52.130;21.218;2023-08-17T03:45:12;15.32;;;11.35;;
78989;SDS011;68390;52.130;21.218;2023-08-17T03:47:38;13.07;;;10.88;;
78989;SDS011;68390;52.130;21.218;2023-08-17T03:50:03;14.23;;;11.10;;
78989;SDS011;68390;52.130;21.218;2023-08-17T03:52:29;11.88;;;9.63;;
78989;SDS011;68390;52.130;21.218;2023-08-17T03:54:54;13.40;;;10.75;;
78989;SDS011;68390;52.130;21.218;2023-08-17T03:57:19;13.85;;;10.75;;
78989;SDS011;68390;52.130;21.218;2023-08-17T03:59:45;13.38;;;10.32;;
78989;SDS011;68390;52.130;21.218;2023-08-17T04:02:10;13.57;;;11.48;;
78989;SDS011;68390;52.130;21.218;2023-08-17T04:04:36;12.38;;;11.07;;
78989;SDS011;68390;52.130;21.218;2023-08-17T04:07:01;12.27;;;10.68;;
78989;SDS011;68390;52.130;21.218;2023-08-17T04:09:26;13.60;;;10.68;;
78989;SDS011;68390;52.130;21.218;2023-08-17T04:11:52;15.73;;;11.23;;
78989;SDS011;68390;52.130;21.218;2023-08-17T04:14:17;14.07;;;10.95;;
78989;SDS011;68390;52.130;21.218;2023-08-17T04:16:43;15.02;;;10.95;;
78989;SDS011;68390;52.130;21.218;2023-08-17T04:19:08;16.13;;;12.32;;
78989;SDS011;68390;52.130;21.218;2023-08-17T04:21:33;14.18;;;11.55;;
78989;SDS011;68390;52.130;21.218;2023-08-17T04:23:59;19.17;;;12.35;;
78989;SDS011;68390;52.130;21.218;2023-08-17T04:26:24;17.88;;;12.65;;
78989;SDS011;68390;52.130;21.218;2023-08-17T04:28:50;14.20;;;11.15;;
78989;SDS011;68390;52.130;21.218;2023-08-17T04:31:15;15.05;;;12.02;;
78989;SDS011;68390;52.130;21.218;2023-08-17T04:33:42;11.98;;;10.13;;
78989;SDS011;68390;52.130;21.218;2023-08-17T04:36:07;15.23;;;10.57;;
78989;SDS011;68390;52.130;21.218;2023-08-17T04:38:33;14.52;;;12.93;;
78989;SDS011;68390;52.130;21.218;2023-08-17T04:40:58;16.10;;;11.63;;
78989;SDS011;68390;52.130;21.218;2023-08-17T04:43:23;16.23;;;11.52;;
78989;SDS011;68390;52.130;21.218;2023-08-17T04:45:49;10.45;;;9.23;;
78989;SDS011;68390;52.130;21.218;2023-08-17T04:48:14;16.50;;;10.80;;
78989;SDS011;68390;52.130;21.218;2023-08-17T04:50:40;19.53;;;12.50;;
78989;SDS011;68390;52.130;21.218;2023-08-17T04:53:05;16.45;;;11.38;;
78989;SDS011;68390;52.130;21.218;2023-08-17T04:55:30;11.25;;;9.95;;
78989;SDS011;68390;52.130;21.218;2023-08-17T04:57:57;14.82;;;9.88;;
78989;SDS011;68390;52.130;21.218;2023-08-17T05:00:22;13.88;;;10.30;;
78989;SDS011;68390;52.130;21.218;2023-08-17T05:02:53;12.73;;;10.38;;
78989;SDS011;68390;52.130;21.218;2023-08-17T05:05:18;14.40;;;10.80;;
78989;SDS011;68390;52.130;21.218;2023-08-17T05:07:44;14.65;;;10.63;;
78989;SDS011;68390;52.130;21.218;2023-08-17T05:10:09;14.27;;;10.30;;
78989;SDS011;68390;52.130;21.218;2023-08-17T05:12:35;13.27;;;9.82;;
78989;SDS011;68390;52.130;21.218;2023-08-17T05:15:00;14.15;;;10.35;;
78989;SDS011;68390;52.130;21.218;2023-08-17T05:17:25;13.05;;;11.00;;
78989;SDS011;68390;52.130;21.218;2023-08-17T05:19:51;12.73;;;9.77;;
78989;SDS011;68390;52.130;21.218;2023-08-17T05:22:16;13.65;;;10.95;;
78989;SDS011;68390;52.130;21.218;2023-08-17T05:24:42;15.50;;;10.25;;
78989;SDS011;68390;52.130;21.218;2023-08-17T05:27:07;11.75;;;9.52;;
78989;SDS011;68390;52.130;21.218;2023-08-17T05:29:33;13.52;;;10.10;;
78989;SDS011;68390;52.130;21.218;2023-08-17T05:31:58;10.07;;;8.98;;
78989;SDS011;68390;52.130;21.218;2023-08-17T05:34:23;16.17;;;10.20;;
78989;SDS011;68390;52.130;21.218;2023-08-17T05:36:49;16.00;;;9.88;;
78989;SDS011;68390;52.130;21.218;2023-08-17T05:39:14;12.55;;;9.45;;
78989;SDS011;68390;52.130;21.218;2023-08-17T05:41:40;13.70;;;9.63;;
78989;SDS011;68390;52.130;21.218;2023-08-17T05:44:05;13.55;;;8.68;;
78989;SDS011;68390;52.130;21.218;2023-08-17T05:46:32;11.20;;;8.80;;
78989;SDS011;68390;52.130;21.218;2023-08-17T05:48:58;15.82;;;9.98;;
78989;SDS011;68390;52.130;21.218;2023-08-17T05:51:24;17.60;;;9.77;;
78989;SDS011;68390;52.130;21.218;2023-08-17T05:53:49;13.95;;;9.57;;
78989;SDS011;68390;52.130;21.218;2023-08-17T05:56:15;16.40;;;9.20;;
78989;SDS011;68390;52.130;21.218;2023-08-17T05:58:40;12.55;;;9.43;;
78989;SDS011;68390;52.130;21.218;2023-08-17T06:01:09;13.48;;;9.45;;
78989;SDS011;68390;52.130;21.218;2023-08-17T06:03:36;10.27;;;8.65;;
78989;SDS011;68390;52.130;21.218;2023-08-17T06:06:03;13.68;;;9.27;;
78989;SDS011;68390;52.130;21.218;2023-08-17T06:08:30;14.82;;;9.45;;
78989;SDS011;68390;52.130;21.218;2023-08-17T06:10:56;12.80;;;8.63;;
78989;SDS011;68390;52.130;21.218;2023-08-17T06:13:21;10.98;;;8.27;;
78989;SDS011;68390;52.130;21.218;2023-08-17T06:15:47;14.35;;;9.25;;
78989;SDS011;68390;52.130;21.218;2023-08-17T06:18:12;10.38;;;8.25;;
78989;SDS011;68390;52.130;21.218;2023-08-17T06:20:37;14.00;;;8.82;;
78989;SDS011;68390;52.130;21.218;2023-08-17T06:23:03;11.93;;;9.70;;
78989;SDS011;68390;52.130;21.218;2023-08-17T06:25:29;13.65;;;9.30;;
78989;SDS011;68390;52.130;21.218;2023-08-17T06:27:54;12.25;;;9.18;;
78989;SDS011;68390;52.130;21.218;2023-08-17T06:30:19;13.63;;;9.35;;
78989;SDS011;68390;52.130;21.218;2023-08-17T06:32:45;9.63;;;8.63;;
78989;SDS011;68390;52.130;21.218;2023-08-17T06:35:10;17.95;;;10.05;;
78989;SDS011;68390;52.130;21.218;2023-08-17T06:37:35;11.30;;;8.30;;
78989;SDS011;68390;52.130;21.218;2023-08-17T06:40:04;12.13;;;10.18;;
78989;SDS011;68390;52.130;21.218;2023-08-17T06:42:30;14.13;;;11.00;;
78989;SDS011;68390;52.130;21.218;2023-08-17T06:44:56;11.13;;;9.15;;
78989;SDS011;68390;52.130;21.218;2023-08-17T06:47:21;14.20;;;9.68;;
78989;SDS011;68390;52.130;21.218;2023-08-17T06:49:46;18.02;;;10.00;;
78989;SDS011;68390;52.130;21.218;2023-08-17T06:52:12;11.55;;;8.48;;
78989;SDS011;68390;52.130;21.218;2023-08-17T06:54:37;13.23;;;8.63;;
78989;SDS011;68390;52.130;21.218;2023-08-17T06:57:03;11.50;;;7.85;;
78989;SDS011;68390;52.130;21.218;2023-08-17T06:59:29;12.85;;;8.75;;
78989;SDS011;68390;52.130;21.218;2023-08-17T07:01:54;13.30;;;8.90;;
78989;SDS011;68390;52.130;21.218;2023-08-17T07:04:20;10.73;;;8.43;;
78989;SDS011;68390;52.130;21.218;2023-08-17T07:06:45;11.63;;;8.23;;
78989;SDS011;68390;52.130;21.218;2023-08-17T07:09:10;12.52;;;9.00;;
78989;SDS011;68390;52.130;21.218;2023-08-17T07:11:37;10.60;;;7.93;;
78989;SDS011;68390;52.130;21.218;2023-08-17T07:14:03;10.30;;;8.60;;
78989;SDS011;68390;52.130;21.218;2023-08-17T07:16:28;15.32;;;8.35;;
78989;SDS011;68390;52.130;21.218;2023-08-17T07:18:54;11.32;;;7.93;;
78989;SDS011;68390;52.130;21.218;2023-08-17T07:21:19;10.93;;;7.63;;
78989;SDS011;68390;52.130;21.218;2023-08-17T07:23:45;11.15;;;7.95;;
78989;SDS011;68390;52.130;21.218;2023-08-17T07:26:11;10.23;;;7.55;;
78989;SDS011;68390;52.130;21.218;2023-08-17T07:28:36;11.88;;;8.75;;
78989;SDS011;68390;52.130;21.218;2023-08-17T07:31:02;13.82;;;8.32;;
78989;SDS011;68390;52.130;21.218;2023-08-17T07:33:27;10.82;;;8.30;;
78989;SDS011;68390;52.130;21.218;2023-08-17T07:35:52;9.23;;;7.72;;
78989;SDS011;68390;52.130;21.218;2023-08-17T07:38:20;15.05;;;8.43;;
78989;SDS011;68390;52.130;21.218;2023-08-17T07:40:46;16.75;;;8.57;;
78989;SDS011;68390;52.130;21.218;2023-08-17T07:43:11;13.95;;;8.25;;
78989;SDS011;68390;52.130;21.218;2023-08-17T07:45:37;12.10;;;8.80;;
78989;SDS011;68390;52.130;21.218;2023-08-17T07:48:02;12.80;;;8.48;;
78989;SDS011;68390;52.130;21.218;2023-08-17T07:50:28;10.15;;;8.02;;
78989;SDS011;68390;52.130;21.218;2023-08-17T07:52:53;12.38;;;8.63;;
78989;SDS011;68390;52.130;21.218;2023-08-17T07:55:18;14.18;;;8.75;;
78989;SDS011;68390;52.130;21.218;2023-08-17T07:57:45;13.00;;;8.50;;
78989;SDS011;68390;52.130;21.218;2023-08-17T08:00:11;12.85;;;8.82;;
78989;SDS011;68390;52.130;21.218;2023-08-17T08:02:37;12.63;;;8.57;;
78989;SDS011;68390;52.130;21.218;2023-08-17T08:05:03;12.02;;;8.45;;
78989;SDS011;68390;52.130;21.218;2023-08-17T08:07:28;12.48;;;9.02;;
78989;SDS011;68390;52.130;21.218;2023-08-17T08:09:54;12.93;;;8.23;;
78989;SDS011;68390;52.130;21.218;2023-08-17T08:12:19;10.57;;;7.97;;
78989;SDS011;68390;52.130;21.218;2023-08-17T08:14:44;12.07;;;7.93;;
78989;SDS011;68390;52.130;21.218;2023-08-17T08:17:10;15.52;;;8.85;;
78989;SDS011;68390;52.130;21.218;2023-08-17T08:19:35;17.10;;;9.18;;
78989;SDS011;68390;52.130;21.218;2023-08-17T08:22:01;15.07;;;8.48;;
78989;SDS011;68390;52.130;21.218;2023-08-17T08:24:27;16.75;;;8.35;;
78989;SDS011;68390;52.130;21.218;2023-08-17T08:26:59;13.55;;;8.23;;
78989;SDS011;68390;52.130;21.218;2023-08-17T08:29:24;10.70;;;7.82;;
78989;SDS011;68390;52.130;21.218;2023-08-17T08:31:49;13.07;;;8.25;;
78989;SDS011;68390;52.130;21.218;2023-08-17T08:34:15;10.60;;;7.72;;
78989;SDS011;68390;52.130;21.218;2023-08-17T08:36:40;13.75;;;8.73;;
78989;SDS011;68390;52.130;21.218;2023-08-17T08:39:05;13.60;;;8.70;;
78989;SDS011;68390;52.130;21.218;2023-08-17T08:41:31;8.68;;;7.88;;
78989;SDS011;68390;52.130;21.218;2023-08-17T08:43:57;13.93;;;7.80;;
78989;SDS011;68390;52.130;21.218;2023-08-17T08:46:23;13.77;;;8.75;;
78989;SDS011;68390;52.130;21.218;2023-08-17T08:48:54;12.10;;;8.68;;
78989;SDS011;68390;52.130;21.218;2023-08-17T08:51:23;11.73;;;8.48;;
78989;SDS011;68390;52.130;21.218;2023-08-17T08:53:56;10.48;;;8.52;;
78989;SDS011;68390;52.130;21.218;2023-08-17T08:56:27;12.15;;;8.40;;
78989;SDS011;68390;52.130;21.218;2023-08-17T08:58:56;11.68;;;8.82;;
78989;SDS011;68390;52.130;21.218;2023-08-17T09:01:23;10.38;;;8.00;;
78989;SDS011;68390;52.130;21.218;2023-08-17T09:03:49;12.45;;;9.35;;
78989;SDS011;68390;52.130;21.218;2023-08-17T09:06:15;12.50;;;8.48;;
78989;SDS011;68390;52.130;21.218;2023-08-17T09:08:41;10.73;;;8.98;;
78989;SDS011;68390;52.130;21.218;2023-08-17T09:11:09;10.57;;;8.75;;
78989;SDS011;68390;52.130;21.218;2023-08-17T09:13:34;14.40;;;8.65;;
78989;SDS011;68390;52.130;21.218;2023-08-17T09:16:00;13.50;;;9.63;;
78989;SDS011;68390;52.130;21.218;2023-08-17T09:18:26;12.85;;;9.45;;
78989;SDS011;68390;52.130;21.218;2023-08-17T09:20:51;12.60;;;8.93;;
78989;SDS011;68390;52.130;21.218;2023-08-17T09:23:18;11.77;;;9.18;;
78989;SDS011;68390;52.130;21.218;2023-08-17T09:25:45;11.15;;;9.07;;
78989;SDS011;68390;52.130;21.218;2023-08-17T09:28:11;11.95;;;9.02;;
78989;SDS011;68390;52.130;21.218;2023-08-17T09:30:58;14.18;;;8.63;;
78989;SDS011;68390;52.130;21.218;2023-08-17T09:33:28;14.40;;;9.00;;
78989;SDS011;68390;52.130;21.218;2023-08-17T09:35:56;10.20;;;8.30;;
78989;SDS011;68390;52.130;21.218;2023-08-17T09:38:22;10.10;;;7.35;;
78989;SDS011;68390;52.130;21.218;2023-08-17T09:40:48;11.32;;;7.82;;
78989;SDS011;68390;52.130;21.218;2023-08-17T09:43:14;11.15;;;8.02;;
78989;SDS011;68390;52.130;21.218;2023-08-17T09:45:40;11.73;;;8.23;;
78989;SDS011;68390;52.130;21.218;2023-08-17T09:48:14;11.13;;;7.60;;
78989;SDS011;68390;52.130;21.218;2023-08-17T09:50:41;9.07;;;6.25;;
78989;SDS011;68390;52.130;21.218;2023-08-17T09:53:12;8.95;;;7.18;;
78989;SDS011;68390;52.130;21.218;2023-08-17T09:55:41;7.25;;;5.63;;
78989;SDS011;68390;52.130;21.218;2023-08-17T09:58:10;10.98;;;6.28;;
78989;SDS011;68390;52.130;21.218;2023-08-17T10:00:49;7.65;;;6.18;;
78989;SDS011;68390;52.130;21.218;2023-08-17T10:03:16;9.30;;;6.43;;
78989;SDS011;68390;52.130;21.218;2023-08-17T10:05:43;10.85;;;6.30;;
78989;SDS011;68390;52.130;21.218;2023-08-17T10:08:11;8.73;;;5.50;;
78989;SDS011;68390;52.130;21.218;2023-08-17T10:10:41;8.23;;;5.50;;
78989;SDS011;68390;52.130;21.218;2023-08-17T10:13:09;7.25;;;5.22;;
78989;SDS011;68390;52.130;21.218;2023-08-17T10:16:22;8.07;;;4.85;;
78989;SDS011;68390;52.130;21.218;2023-08-17T10:18:38;6.47;;;5.30;;
78989;SDS011;68390;52.130;21.218;2023-08-17T10:21:17;7.63;;;4.60;;
78989;SDS011;68390;52.130;21.218;2023-08-17T10:23:46;6.25;;;4.80;;
78989;SDS011;68390;52.130;21.218;2023-08-17T10:26:13;7.95;;;4.22;;
78989;SDS011;68390;52.130;21.218;2023-08-17T10:28:39;5.05;;;3.33;;
78989;SDS011;68390;52.130;21.218;2023-08-17T10:31:05;5.47;;;3.67;;
78989;SDS011;68390;52.130;21.218;2023-08-17T10:33:32;7.43;;;4.07;;
78989;SDS011;68390;52.130;21.218;2023-08-17T10:35:59;5.00;;;3.60;;
78989;SDS011;68390;52.130;21.218;2023-08-17T10:38:26;7.18;;;3.97;;
78989;SDS011;68390;52.130;21.218;2023-08-17T10:41:40;4.85;;;3.55;;
78989;SDS011;68390;52.130;21.218;2023-08-17T10:46:31;6.43;;;4.03;;
78989;SDS011;68390;52.130;21.218;2023-08-17T10:49:00;5.60;;;3.95;;
78989;SDS011;68390;52.130;21.218;2023-08-17T10:51:29;4.50;;;3.53;;
78989;SDS011;68390;52.130;21.218;2023-08-17T10:53:54;7.65;;;4.30;;
78989;SDS011;68390;52.130;21.218;2023-08-17T10:56:24;7.72;;;4.15;;
78989;SDS011;68390;52.130;21.218;2023-08-17T10:58:53;7.43;;;4.47;;
78989;SDS011;68390;52.130;21.218;2023-08-17T11:01:34;7.35;;;5.00;;
78989;SDS011;68390;52.130;21.218;2023-08-17T11:04:15;6.47;;;3.95;;
78989;SDS011;68390;52.130;21.218;2023-08-17T11:06:42;6.03;;;3.95;;
78989;SDS011;68390;52.130;21.218;2023-08-17T11:09:09;5.07;;;3.83;;
78989;SDS011;68390;52.130;21.218;2023-08-17T11:11:34;6.53;;;4.10;;
78989;SDS011;68390;52.130;21.218;2023-08-17T11:13:59;8.43;;;4.28;;
78989;SDS011;68390;52.130;21.218;2023-08-17T11:16:25;5.07;;;4.20;;
78989;SDS011;68390;52.130;21.218;2023-08-17T11:18:50;5.68;;;4.32;;
78989;SDS011;68390;52.130;21.218;2023-08-17T11:21:16;6.63;;;4.10;;
78989;SDS011;68390;52.130;21.218;2023-08-17T11:23:42;6.53;;;4.47;;
78989;SDS011;68390;52.130;21.218;2023-08-17T11:26:08;5.57;;;4.50;;
78989;SDS011;68390;52.130;21.218;2023-08-17T11:28:34;7.50;;;4.30;;
78989;SDS011;68390;52.130;21.218;2023-08-17T11:31:06;5.78;;;4.13;;
78989;SDS011;68390;52.130;21.218;2023-08-17T11:33:34;5.82;;;4.03;;
78989;SDS011;68390;52.130;21.218;2023-08-17T11:36:01;5.90;;;4.20;;
78989;SDS011;68390;52.130;21.218;2023-08-17T11:38:31;5.35;;;3.13;;
78989;SDS011;68390;52.130;21.218;2023-08-17T11:40:57;8.85;;;3.67;;
78989;SDS011;68390;52.130;21.218;2023-08-17T11:43:23;4.53;;;3.38;;
78989;SDS011;68390;52.130;21.218;2023-08-17T11:45:51;4.53;;;3.03;;
78989;SDS011;68390;52.130;21.218;2023-08-17T11:48:18;4.30;;;2.88;;
78989;SDS011;68390;52.130;21.218;2023-08-17T11:50:44;4.93;;;3.17;;
78989;SDS011;68390;52.130;21.218;2023-08-17T11:53:10;3.80;;;3.00;;
78989;SDS011;68390;52.130;21.218;2023-08-17T11:55:35;7.35;;;4.03;;
78989;SDS011;68390;52.130;21.218;2023-08-17T11:58:02;4.93;;;3.80;;
78989;SDS011;68390;52.130;21.218;2023-08-17T12:00:28;4.53;;;3.58;;
78989;SDS011;68390;52.130;21.218;2023-08-17T12:03:00;7.10;;;3.47;;
78989;SDS011;68390;52.130;21.218;2023-08-17T12:05:25;6.07;;;3.83;;
78989;SDS011;68390;52.130;21.218;2023-08-17T12:07:52;6.43;;;4.05;;
78989;SDS011;68390;52.130;21.218;2023-08-17T12:10:19;6.72;;;3.45;;
78989;SDS011;68390;52.130;21.218;2023-08-17T12:12:46;5.15;;;3.75;;
78989;SDS011;68390;52.130;21.218;2023-08-17T12:15:13;6.70;;;4.07;;
78989;SDS011;68390;52.130;21.218;2023-08-17T12:17:45;5.70;;;3.92;;
78989;SDS011;68390;52.130;21.218;2023-08-17T12:20:18;7.00;;;3.90;;
78989;SDS011;68390;52.130;21.218;2023-08-17T12:22:48;4.65;;;4.10;;
78989;SDS011;68390;52.130;21.218;2023-08-17T12:25:14;11.15;;;4.40;;
78989;SDS011;68390;52.130;21.218;2023-08-17T12:27:39;8.13;;;4.35;;
78989;SDS011;68390;52.130;21.218;2023-08-17T12:30:11;6.07;;;3.80;;
78989;SDS011;68390;52.130;21.218;2023-08-17T12:32:38;7.75;;;4.30;;
78989;SDS011;68390;52.130;21.218;2023-08-17T12:35:04;5.13;;;4.10;;
78989;SDS011;68390;52.130;21.218;2023-08-17T12:37:30;6.50;;;4.40;;
78989;SDS011;68390;52.130;21.218;2023-08-17T12:39:55;5.35;;;3.80;;
78989;SDS011;68390;52.130;21.218;2023-08-17T12:42:20;7.13;;;4.28;;
78989;SDS011;68390;52.130;21.218;2023-08-17T12:44:46;7.28;;;4.00;;
78989;SDS011;68390;52.130;21.218;2023-08-17T12:47:11;6.05;;;4.38;;
78989;SDS011;68390;52.130;21.218;2023-08-17T12:49:37;7.15;;;4.40;;
78989;SDS011;68390;52.130;21.218;2023-08-17T12:52:02;6.00;;;3.65;;
78989;SDS011;68390;52.130;21.218;2023-08-17T12:54:28;4.63;;;3.80;;
78989;SDS011;68390;52.130;21.218;2023-08-17T12:56:53;5.43;;;4.25;;
78989;SDS011;68390;52.130;21.218;2023-08-17T12:59:18;5.35;;;3.72;;
78989;SDS011;68390;52.130;21.218;2023-08-17T13:01:44;6.45;;;3.63;;
78989;SDS011;68390;52.130;21.218;2023-08-17T13:04:09;7.20;;;3.88;;
78989;SDS011;68390;52.130;21.218;2023-08-17T13:06:34;7.93;;;4.07;;
78989;SDS011;68390;52.130;21.218;2023-08-17T13:09:00;7.53;;;3.78;;
78989;SDS011;68390;52.130;21.218;2023-08-17T13:11:25;4.90;;;3.35;;
78989;SDS011;68390;52.130;21.218;2023-08-17T13:13:50;6.68;;;3.70;;
78989;SDS011;68390;52.130;21.218;2023-08-17T13:16:16;5.45;;;3.63;;
78989;SDS011;68390;52.130;21.218;2023-08-17T13:18:41;5.55;;;3.65;;
78989;SDS011;68390;52.130;21.218;2023-08-17T13:21:07;4.40;;;3.30;;
78989;SDS011;68390;52.130;21.218;2023-08-17T13:23:33;6.03;;;3.58;;
78989;SDS011;68390;52.130;21.218;2023-08-17T13:25:58;7.45;;;3.35;;
78989;SDS011;68390;52.130;21.218;2023-08-17T13:28:24;5.53;;;3.42;;
78989;SDS011;68390;52.130;21.218;2023-08-17T13:30:52;4.95;;;3.08;;
78989;SDS011;68390;52.130;21.218;2023-08-17T13:33:17;4.75;;;3.58;;
78989;SDS011;68390;52.130;21.218;2023-08-17T13:35:43;7.18;;;3.80;;
78989;SDS011;68390;52.130;21.218;2023-08-17T13:38:08;7.15;;;3.65;;
78989;SDS011;68390;52.130;21.218;2023-08-17T13:40:34;5.78;;;3.70;;
78989;SDS011;68390;52.130;21.218;2023-08-17T13:43:01;9.43;;;3.60;;
78989;SDS011;68390;52.130;21.218;2023-08-17T13:45:28;4.97;;;3.20;;
78989;SDS011;68390;52.130;21.218;2023-08-17T13:47:53;6.40;;;3.80;;
78989;SDS011;68390;52.130;21.218;2023-08-17T13:50:18;5.03;;;3.92;;
78989;SDS011;68390;52.130;21.218;2023-08-17T13:52:44;4.72;;;3.47;;
78989;SDS011;68390;52.130;21.218;2023-08-17T13:55:10;5.57;;;4.13;;
78989;SDS011;68390;52.130;21.218;2023-08-17T13:57:35;5.53;;;4.47;;
78989;SDS011;68390;52.130;21.218;2023-08-17T14:00:01;6.10;;;3.90;;
78989;SDS011;68390;52.130;21.218;2023-08-17T14:02:27;6.60;;;3.78;;
78989;SDS011;68390;52.130;21.218;2023-08-17T14:04:52;6.93;;;4.13;;
78989;SDS011;68390;52.130;21.218;2023-08-17T14:07:17;5.15;;;3.60;;
78989;SDS011;68390;52.130;21.218;2023-08-17T14:09:43;4.97;;;3.55;;
78989;SDS011;68390;52.130;21.218;2023-08-17T14:12:08;5.60;;;4.13;;
78989;SDS011;68390;52.130;21.218;2023-08-17T14:14:33;5.05;;;3.40;;
78989;SDS011;68390;52.130;21.218;2023-08-17T14:16:59;5.70;;;3.70;;
78989;SDS011;68390;52.130;21.218;2023-08-17T14:19:25;6.65;;;4.00;;
78989;SDS011;68390;52.130;21.218;2023-08-17T14:21:51;5.97;;;3.80;;
78989;SDS011;68390;52.130;21.218;2023-08-17T14:24:17;4.82;;;3.72;;
78989;SDS011;68390;52.130;21.218;2023-08-17T14:26:43;5.82;;;3.53;;
78989;SDS011;68390;52.130;21.218;2023-08-17T14:29:08;8.18;;;4.07;;
78989;SDS011;68390;52.130;21.218;2023-08-17T14:31:34;7.00;;;3.75;;